createdAt,value
2022-12-03T00:00:12.162Z,-0.19
2022-12-03T00:02:43.249Z,-0.09
2022-12-03T00:05:12.234Z,-0.06
2022-12-03T00:07:40.962Z,-0.06
2022-12-03T00:10:10.826Z,-0.15
2022-12-03T00:12:39.669Z,-0.19
2022-12-03T00:15:09.799Z,-0.17
2022-12-03T00:17:38.485Z,-0.11
2022-12-03T00:20:10.305Z,-0.16
2022-12-03T00:22:38.945Z,-0.05
2022-12-03T00:25:08.763Z,-0.08
2022-12-03T00:27:37.343Z,-0.15
2022-12-03T00:30:08.779Z,-0.08
2022-12-03T00:32:37.441Z,-0.04
2022-12-03T00:35:08.050Z,-0.14
2022-12-03T00:37:36.658Z,-0.23
2022-12-03T00:40:06.644Z,-0.17
2022-12-03T00:42:35.247Z,-0.16
2022-12-03T00:45:04.040Z,-0.12
2022-12-03T00:47:32.725Z,-0.13
2022-12-03T00:50:01.300Z,-0.15
2022-12-03T00:52:31.330Z,-0.13
2022-12-03T00:54:59.938Z,-0.15
2022-12-03T00:57:28.484Z,-0.11
2022-12-03T00:59:57.136Z,-0.08
2022-12-03T01:02:25.680Z,0.02
2022-12-03T01:04:54.456Z,-0.01
2022-12-03T01:07:23.528Z,-0.01
2022-12-03T01:09:53.674Z,-0.02
2022-12-03T01:12:22.298Z,0.05
2022-12-03T01:14:51.938Z,0.11
2022-12-03T01:17:20.779Z,-0.52
2022-12-03T01:19:52.356Z,-0.11
2022-12-03T01:22:20.950Z,-0.09
2022-12-03T01:24:49.473Z,-0.15
2022-12-03T01:27:19.415Z,-0.27
2022-12-03T01:29:47.966Z,-0.17
2022-12-03T01:32:19.563Z,-0.25
2022-12-03T01:34:50.217Z,-0.26
2022-12-03T01:37:20.325Z,-0.26
2022-12-03T01:39:48.975Z,-0.30
2022-12-03T01:42:22.215Z,-0.33
2022-12-03T01:44:54.123Z,-0.28
2022-12-03T01:47:31.681Z,-0.29
2022-12-03T01:50:04.511Z,-0.33
2022-12-03T01:52:38.081Z,-0.40
2022-12-03T01:55:12.486Z,-0.32
2022-12-03T01:57:46.104Z,-0.39
2022-12-03T02:00:16.904Z,-0.41
2022-12-03T02:02:46.686Z,-0.46
2022-12-03T02:05:19.873Z,-0.40
2022-12-03T02:07:48.908Z,-0.36
2022-12-03T02:10:20.076Z,-0.39
2022-12-03T02:12:55.337Z,-0.42
2022-12-03T02:15:24.262Z,-0.39
2022-12-03T02:17:53.299Z,-0.33
2022-12-03T02:20:22.344Z,-0.33
2022-12-03T02:23:00.938Z,-0.32
2022-12-03T02:25:33.250Z,-0.25
2022-12-03T02:28:03.207Z,-0.22
2022-12-03T02:30:33.540Z,-0.30
2022-12-03T02:33:03.508Z,-0.35
2022-12-03T02:35:35.292Z,-0.38
2022-12-03T02:38:15.274Z,-0.48
2022-12-03T02:40:46.970Z,-0.49
2022-12-03T02:43:16.754Z,-0.44
2022-12-03T02:45:47.872Z,-0.40
2022-12-03T02:48:20.598Z,-0.47
2022-12-03T02:50:54.548Z,-0.48
2022-12-03T02:53:28.767Z,-0.53
2022-12-03T02:56:00.871Z,-0.58
2022-12-03T02:58:32.235Z,-0.54
2022-12-03T03:01:03.192Z,-0.52
2022-12-03T03:03:33.577Z,-0.48
2022-12-03T03:06:03.819Z,-0.53
2022-12-03T03:08:32.988Z,-0.56
2022-12-03T03:11:03.992Z,-0.59
2022-12-03T03:13:34.368Z,-0.66
2022-12-03T03:16:04.791Z,-0.54
2022-12-03T03:18:33.716Z,-0.59
2022-12-03T03:21:02.595Z,-0.56
2022-12-03T03:23:31.210Z,-0.69
2022-12-03T03:26:05.425Z,-0.58
2022-12-03T03:28:36.999Z,-0.67
2022-12-03T03:31:08.659Z,-0.71
2022-12-03T03:33:38.622Z,-0.72
2022-12-03T03:36:08.163Z,-0.77
2022-12-03T03:38:38.052Z,-0.88
2022-12-03T03:41:10.445Z,-0.95
2022-12-03T03:43:43.384Z,-0.87
2022-12-03T03:46:13.393Z,-0.81
2022-12-03T03:48:44.162Z,-0.73
2022-12-03T03:51:13.579Z,-0.79
2022-12-03T03:53:45.255Z,-0.84
2022-12-03T03:56:17.107Z,-0.79
2022-12-03T03:58:45.810Z,-0.72
2022-12-03T04:01:15.748Z,-0.78
2022-12-03T04:03:44.428Z,-0.75
2022-12-03T04:06:13.160Z,-0.74
2022-12-03T04:08:41.862Z,-0.73
2022-12-03T04:11:27.778Z,-0.69
2022-12-03T04:13:57.805Z,-0.87
2022-12-03T04:16:26.524Z,-0.85
2022-12-03T04:18:55.215Z,-0.78
2022-12-03T04:21:56.946Z,-0.71
2022-12-03T04:24:25.840Z,-0.73
2022-12-03T04:27:13.125Z,-0.78
2022-12-03T04:29:43.101Z,-0.74
2022-12-03T04:32:29.100Z,-0.77
2022-12-03T04:35:14.980Z,-0.80
2022-12-03T04:37:43.697Z,-0.84
2022-12-03T04:40:29.312Z,-0.87
2022-12-03T04:42:57.899Z,-0.76
2022-12-03T04:45:27.819Z,-0.79
2022-12-03T04:47:56.534Z,-0.83
2022-12-03T04:50:25.126Z,-0.84
2022-12-03T04:52:53.717Z,-0.78
2022-12-03T04:55:22.296Z,-0.74
2022-12-03T04:57:50.883Z,-0.84
2022-12-03T05:00:20.015Z,-0.87
2022-12-03T05:02:50.098Z,-0.88
2022-12-03T05:05:19.105Z,-0.88
2022-12-03T05:07:47.711Z,-0.87
2022-12-03T05:10:16.424Z,-0.91
2022-12-03T05:12:44.979Z,-0.92
2022-12-03T05:15:13.742Z,-0.98
2022-12-03T05:17:42.344Z,-1.01
2022-12-03T05:20:31.466Z,-0.91
2022-12-03T05:23:00.142Z,-0.94
2022-12-03T05:25:28.693Z,-0.97
2022-12-03T05:27:57.316Z,-1.00
2022-12-03T05:30:26.016Z,-1.39
2022-12-03T05:32:54.717Z,-0.92
2022-12-03T05:35:24.813Z,-0.93
2022-12-03T05:37:54.122Z,-0.85
2022-12-03T05:40:22.932Z,-0.79
2022-12-03T05:42:57.210Z,-0.79
2022-12-03T05:45:27.544Z,-0.77
2022-12-03T05:47:57.420Z,-0.87
2022-12-03T05:50:29.947Z,-0.93
2022-12-03T05:52:59.394Z,-0.94
2022-12-03T05:55:28.464Z,-0.87
2022-12-03T05:57:57.136Z,-0.87
2022-12-03T06:00:27.736Z,-0.84
2022-12-03T06:02:57.307Z,-0.90
2022-12-03T06:05:27.806Z,-0.86
2022-12-03T06:07:56.568Z,-0.81
2022-12-03T06:10:26.445Z,-0.79
2022-12-03T06:12:55.489Z,-0.82
2022-12-03T06:15:24.478Z,-0.91
2022-12-03T06:17:53.114Z,-0.90
2022-12-03T06:20:22.529Z,-0.82
2022-12-03T06:22:52.479Z,-0.80
2022-12-03T06:25:21.076Z,-0.77
2022-12-03T06:27:49.674Z,-0.78
2022-12-03T06:30:18.455Z,-0.86
2022-12-03T06:32:47.080Z,-0.80
2022-12-03T06:35:15.813Z,-0.82
2022-12-03T06:37:44.391Z,-0.74
2022-12-03T06:40:16.821Z,-0.74
2022-12-03T06:42:45.692Z,-0.69
2022-12-03T06:45:14.524Z,-0.74
2022-12-03T06:47:43.254Z,-0.67
2022-12-03T06:50:12.252Z,-0.66
2022-12-03T06:52:40.873Z,-0.74
2022-12-03T06:55:10.481Z,-0.64
2022-12-03T06:57:40.427Z,-0.67
2022-12-03T07:00:10.373Z,-0.72
2022-12-03T07:02:39.200Z,-0.74
2022-12-03T07:05:08.596Z,-0.79
2022-12-03T07:07:37.531Z,-0.70
2022-12-03T07:10:07.293Z,-0.59
2022-12-03T07:12:36.043Z,-0.66
2022-12-03T07:15:07.140Z,-0.53
2022-12-03T07:17:35.753Z,-0.47
2022-12-03T07:20:05.602Z,-0.59
2022-12-03T07:22:34.502Z,-0.58
2022-12-03T07:25:03.096Z,-0.50
2022-12-03T07:27:31.737Z,-0.50
2022-12-03T07:30:00.375Z,-0.59
2022-12-03T07:32:30.340Z,-0.56
2022-12-03T07:34:58.932Z,-0.49
2022-12-03T07:37:27.752Z,-0.49
2022-12-03T07:39:56.476Z,-0.47
2022-12-03T07:42:25.395Z,-0.53
2022-12-03T07:44:54.257Z,-0.55
2022-12-03T07:47:23.076Z,-0.44
2022-12-03T07:49:53.109Z,-0.43
2022-12-03T07:52:23.128Z,-0.43
2022-12-03T07:54:52.051Z,-0.35
2022-12-03T07:57:20.837Z,-0.41
2022-12-03T07:59:49.444Z,-0.48
2022-12-03T08:02:21.242Z,-0.51
2022-12-03T08:04:52.244Z,-0.43
2022-12-03T08:07:21.265Z,-0.47
2022-12-03T08:09:50.650Z,-0.37
2022-12-03T08:12:23.870Z,-0.40
2022-12-03T08:14:53.066Z,-0.36
2022-12-03T08:17:21.905Z,-0.44
2022-12-03T08:19:54.296Z,-0.34
2022-12-03T08:22:23.321Z,-0.41
2022-12-03T08:24:52.255Z,-0.24
2022-12-03T08:27:21.437Z,-0.11
2022-12-03T08:29:49.985Z,-0.15
2022-12-03T08:32:18.647Z,-0.34
2022-12-03T08:34:47.283Z,-0.21
2022-12-03T08:37:20.160Z,-0.04
2022-12-03T08:39:51.007Z,-0.22
2022-12-03T08:42:41.356Z,-0.32
2022-12-03T08:45:41.087Z,-0.15
2022-12-03T08:48:32.783Z,-0.13
2022-12-03T08:51:07.357Z,-0.11
2022-12-03T08:53:39.790Z,-0.18
2022-12-03T08:56:20.739Z,-0.24
2022-12-03T08:58:54.130Z,-0.30
2022-12-03T09:01:33.281Z,0.07
2022-12-03T09:04:20.985Z,-0.05
2022-12-03T09:06:50.005Z,-0.07
2022-12-03T09:09:20.633Z,0.07
2022-12-03T09:11:49.694Z,0.08
2022-12-03T09:14:33.671Z,-0.01
2022-12-03T09:17:02.578Z,-0.11
2022-12-03T09:19:31.944Z,0.00
2022-12-03T09:22:00.723Z,0.15
2022-12-03T09:24:30.975Z,-0.02
2022-12-03T09:26:59.600Z,0.03
2022-12-03T09:29:28.503Z,0.07
2022-12-03T09:31:57.414Z,-0.04
2022-12-03T09:34:26.275Z,-0.11
2022-12-03T09:36:55.124Z,0.07
2022-12-03T09:39:23.935Z,0.11
2022-12-03T09:41:54.311Z,0.25
2022-12-03T09:44:23.284Z,0.42
2022-12-03T09:46:54.950Z,-0.03
2022-12-03T09:49:23.978Z,0.14
2022-12-03T09:51:53.419Z,0.36
2022-12-03T09:54:25.524Z,0.61
2022-12-03T09:56:57.783Z,0.49
2022-12-03T09:59:31.455Z,0.50
2022-12-03T10:02:00.584Z,0.55
2022-12-03T10:04:29.697Z,0.66
2022-12-03T10:07:00.259Z,0.70
2022-12-03T10:09:31.333Z,0.55
2022-12-03T10:12:02.117Z,0.70
2022-12-03T10:14:31.092Z,0.81
2022-12-03T10:17:00.493Z,0.91
2022-12-03T10:19:32.950Z,1.01
2022-12-03T10:22:01.563Z,1.13
2022-12-03T10:24:31.515Z,1.24
2022-12-03T10:27:03.121Z,1.29
2022-12-03T10:29:34.649Z,1.19
2022-12-03T10:32:07.761Z,0.80
2022-12-03T10:34:38.226Z,1.22
2022-12-03T10:37:17.090Z,0.61
2022-12-03T10:39:57.782Z,0.97
2022-12-03T10:42:29.444Z,0.98
2022-12-03T10:45:25.010Z,1.24
2022-12-03T10:48:12.207Z,1.20
2022-12-03T10:50:49.262Z,1.26
2022-12-03T10:53:18.946Z,1.36
2022-12-03T10:55:48.897Z,1.10
2022-12-03T10:58:23.700Z,1.29
2022-12-03T11:00:53.953Z,1.11
2022-12-03T11:03:24.776Z,1.24
2022-12-03T11:05:55.045Z,1.24
2022-12-03T11:08:25.578Z,1.28
2022-12-03T11:11:01.802Z,1.31
2022-12-03T11:13:48.689Z,1.44
2022-12-03T11:17:07.840Z,1.36
2022-12-03T11:19:49.506Z,1.26
2022-12-03T11:22:26.437Z,0.87
2022-12-03T11:25:28.483Z,0.66
2022-12-03T11:28:29.626Z,0.69
2022-12-03T11:31:02.463Z,0.72
2022-12-03T11:33:32.670Z,0.74
2022-12-03T11:36:17.630Z,1.08
2022-12-03T11:38:56.108Z,1.27
2022-12-03T11:41:35.900Z,1.18
2022-12-03T11:44:32.986Z,1.15
2022-12-03T11:47:17.310Z,1.22
2022-12-03T11:49:49.975Z,0.90
2022-12-03T11:52:28.854Z,1.08
2022-12-03T11:55:05.407Z,1.17
2022-12-03T11:57:39.714Z,1.37
2022-12-03T12:00:21.023Z,1.48
2022-12-03T12:02:53.575Z,1.59
2022-12-03T12:05:27.613Z,1.57
2022-12-03T12:07:57.852Z,1.73
2022-12-03T12:10:46.161Z,1.83
2022-12-03T12:13:58.300Z,2.00
2022-12-03T12:16:55.480Z,1.80
2022-12-03T12:19:34.853Z,1.69
2022-12-03T12:22:33.291Z,1.49
2022-12-03T12:25:04.123Z,1.38
2022-12-03T12:27:45.397Z,1.45
2022-12-03T12:30:17.755Z,1.43
2022-12-03T12:32:50.041Z,1.35
2022-12-03T12:35:23.151Z,1.54
2022-12-03T12:38:00.172Z,1.67
2022-12-03T12:40:32.543Z,1.56
2022-12-03T12:43:11.888Z,1.38
2022-12-03T12:45:44.639Z,1.33
2022-12-03T12:48:22.331Z,1.49
2022-12-03T12:50:58.530Z,1.27
2022-12-03T12:53:31.001Z,1.12
2022-12-03T12:56:02.098Z,1.14
2022-12-03T12:58:34.600Z,1.20
2022-12-03T13:01:09.570Z,1.33
2022-12-03T13:03:41.443Z,1.20
2022-12-03T13:06:48.684Z,0.90
2022-12-03T13:09:22.251Z,0.84
2022-12-03T13:11:57.192Z,0.86
2022-12-03T13:14:37.439Z,0.95
2022-12-03T13:17:17.081Z,1.01
2022-12-03T13:19:48.621Z,0.95
2022-12-03T13:22:22.484Z,0.87
2022-12-03T13:24:53.022Z,0.85
2022-12-03T13:27:29.507Z,0.90
2022-12-03T13:30:02.707Z,0.98
2022-12-03T13:32:35.001Z,0.84
2022-12-03T13:35:07.036Z,0.64
2022-12-03T13:37:37.946Z,0.67
2022-12-03T13:40:20.380Z,0.68
2022-12-03T13:42:49.161Z,0.61
2022-12-03T13:45:35.597Z,0.60
2022-12-03T13:48:14.894Z,0.53
2022-12-03T13:50:46.082Z,0.72
2022-12-03T13:53:24.507Z,0.75
2022-12-03T13:56:14.700Z,0.65
2022-12-03T13:58:43.433Z,0.63
2022-12-03T14:01:12.087Z,0.63
2022-12-03T14:03:40.892Z,0.75
2022-12-03T14:06:09.567Z,0.65
2022-12-03T14:08:39.612Z,0.73
2022-12-03T14:11:08.428Z,0.86
2022-12-03T14:13:37.260Z,0.87
2022-12-03T14:16:06.445Z,0.90
2022-12-03T14:18:36.090Z,1.03
2022-12-03T14:21:04.867Z,0.97
2022-12-03T14:23:33.426Z,1.02
2022-12-03T14:26:03.386Z,1.07
2022-12-03T14:28:32.028Z,1.06
2022-12-03T14:31:00.550Z,1.02
2022-12-03T14:33:30.839Z,0.99
2022-12-03T14:35:59.484Z,0.78
2022-12-03T14:38:28.186Z,0.87
2022-12-03T14:40:56.869Z,0.89
2022-12-03T14:43:26.832Z,0.85
2022-12-03T14:45:55.577Z,0.71
2022-12-03T14:48:24.206Z,0.61
2022-12-03T14:50:52.834Z,0.60
2022-12-03T14:53:25.707Z,0.52
2022-12-03T14:55:59.109Z,0.53
2022-12-03T14:58:29.148Z,0.64
2022-12-03T15:00:57.804Z,0.59
2022-12-03T15:03:26.547Z,0.61
2022-12-03T15:05:55.139Z,0.58
2022-12-03T15:08:24.164Z,0.66
2022-12-03T15:10:52.955Z,0.62
2022-12-03T15:13:21.789Z,0.59
2022-12-03T15:15:52.712Z,0.58
2022-12-03T15:18:21.700Z,0.66
2022-12-03T15:20:50.793Z,0.68
2022-12-03T15:23:19.989Z,0.61
2022-12-03T15:25:48.613Z,0.61
2022-12-03T15:28:18.542Z,0.58
2022-12-03T15:30:47.528Z,0.58
2022-12-03T15:33:17.997Z,0.56
2022-12-03T15:35:47.378Z,0.52
2022-12-03T15:38:16.904Z,0.53
2022-12-03T15:40:45.691Z,0.52
2022-12-03T15:43:14.902Z,0.62
2022-12-03T15:45:43.710Z,0.57
2022-12-03T15:48:13.543Z,0.50
2022-12-03T15:50:43.567Z,0.49
2022-12-03T15:53:12.997Z,0.56
2022-12-03T15:55:41.792Z,0.66
2022-12-03T15:58:10.609Z,0.68
2022-12-03T16:00:40.028Z,0.63
2022-12-03T16:03:08.698Z,0.55
2022-12-03T16:05:37.747Z,0.54
2022-12-03T16:08:08.484Z,0.58
2022-12-03T16:10:37.179Z,0.61
2022-12-03T16:13:06.298Z,0.66
2022-12-03T16:15:35.988Z,0.71
2022-12-03T16:18:04.875Z,0.70
2022-12-03T16:20:33.785Z,0.61
2022-12-03T16:23:02.452Z,0.63
2022-12-03T16:25:32.803Z,0.71
2022-12-03T16:28:01.737Z,0.79
2022-12-03T16:30:30.299Z,0.75
2022-12-03T16:32:59.293Z,0.74
2022-12-03T16:35:28.176Z,0.71
2022-12-03T16:37:57.381Z,0.67
2022-12-03T16:40:26.406Z,0.70
2022-12-03T16:42:56.560Z,0.71
2022-12-03T16:45:51.260Z,0.70
2022-12-03T16:48:20.748Z,0.72
2022-12-03T16:50:49.997Z,0.73
2022-12-03T16:53:19.077Z,0.72
2022-12-03T16:55:48.085Z,0.71
2022-12-03T16:58:21.349Z,0.78
2022-12-03T17:00:50.890Z,0.72
2022-12-03T17:03:19.676Z,0.80
2022-12-03T17:05:50.137Z,0.80
2022-12-03T17:08:19.501Z,0.68
2022-12-03T17:10:48.193Z,0.75
2022-12-03T17:13:18.477Z,0.81
2022-12-03T17:15:47.546Z,0.87
2022-12-03T17:18:16.206Z,0.84
2022-12-03T17:20:45.612Z,0.92
2022-12-03T17:23:14.353Z,0.87
2022-12-03T17:25:43.099Z,0.91
2022-12-03T17:28:12.253Z,0.97
2022-12-03T17:30:42.695Z,0.93
2022-12-03T17:33:11.900Z,0.83
2022-12-03T17:35:41.375Z,0.90
2022-12-03T17:38:11.244Z,0.89
2022-12-03T17:40:40.334Z,0.96
2022-12-03T17:43:09.266Z,0.89
2022-12-03T17:45:38.572Z,0.88
2022-12-03T17:48:11.213Z,0.80
2022-12-03T17:50:40.667Z,0.84
2022-12-03T17:53:10.741Z,0.88
2022-12-03T17:55:44.618Z,0.81
2022-12-03T17:58:14.440Z,0.80
2022-12-03T18:00:43.279Z,0.78
2022-12-03T18:03:13.280Z,0.74
2022-12-03T18:05:41.983Z,0.73
2022-12-03T18:08:10.702Z,0.76
2022-12-03T18:10:39.413Z,0.80
2022-12-03T18:13:08.205Z,0.90
2022-12-03T18:15:37.013Z,0.96
2022-12-03T18:18:05.830Z,0.78
2022-12-03T18:20:36.189Z,0.78
2022-12-03T18:23:05.337Z,0.71
2022-12-03T18:25:34.010Z,0.72
2022-12-03T18:28:02.716Z,0.70
2022-12-03T18:33:15.675Z,0.67
2022-12-03T18:35:46.165Z,0.81
2022-12-03T18:38:18.302Z,0.73
2022-12-03T18:40:47.941Z,0.77
2022-12-03T18:43:17.560Z,0.75
2022-12-03T18:45:46.203Z,0.68
2022-12-03T18:48:15.916Z,0.65
2022-12-03T18:50:46.873Z,0.74
2022-12-03T18:53:16.915Z,0.77
2022-12-03T18:55:47.338Z,0.71
2022-12-03T18:58:16.211Z,0.69
2022-12-03T19:00:44.887Z,0.74
2022-12-03T19:03:13.667Z,0.80
2022-12-03T19:05:42.496Z,0.84
2022-12-03T19:08:14.940Z,0.87
2022-12-03T19:10:44.212Z,0.90
2022-12-03T19:13:13.068Z,0.76
2022-12-03T19:15:41.733Z,0.81
2022-12-03T19:18:10.376Z,0.84
2022-12-03T19:20:42.148Z,0.89
2022-12-03T19:23:12.304Z,0.88
2022-12-03T19:25:40.954Z,0.83
2022-12-03T19:28:09.905Z,0.71
2022-12-03T19:30:40.374Z,0.80
2022-12-03T19:33:09.016Z,0.90
2022-12-03T19:35:40.934Z,1.03
2022-12-03T19:38:11.182Z,0.98
2022-12-03T19:40:40.683Z,0.90
2022-12-03T19:43:09.368Z,0.97
2022-12-03T19:45:38.249Z,0.92
2022-12-03T19:48:07.112Z,0.90
2022-12-03T19:50:35.770Z,0.93
2022-12-03T19:53:04.414Z,1.01
2022-12-03T19:55:37.090Z,0.96
2022-12-03T19:58:05.731Z,0.84
2022-12-03T20:00:36.309Z,0.87
2022-12-03T20:03:05.369Z,0.96
2022-12-03T20:05:38.147Z,0.96
2022-12-03T20:08:08.911Z,0.96
2022-12-03T20:10:39.218Z,1.01
2022-12-03T20:13:07.900Z,0.91
2022-12-03T20:15:38.736Z,1.00
2022-12-03T20:18:07.881Z,0.93
2022-12-03T20:20:38.563Z,0.88
2022-12-03T20:23:07.813Z,0.87
2022-12-03T20:25:39.401Z,0.87
2022-12-03T20:28:08.131Z,0.90
2022-12-03T20:30:36.718Z,0.90
2022-12-03T20:33:05.575Z,0.88
2022-12-03T20:35:35.207Z,0.90
2022-12-03T20:38:03.870Z,0.88
2022-12-03T20:40:36.412Z,0.91
2022-12-03T20:43:06.607Z,0.99
2022-12-03T20:45:35.390Z,1.03
2022-12-03T20:48:04.249Z,0.92
2022-12-03T20:50:33.454Z,1.01
2022-12-03T20:53:23.059Z,0.91
2022-12-03T20:55:56.879Z,0.86
2022-12-03T20:58:27.289Z,0.82
2022-12-03T21:00:56.211Z,0.89
2022-12-03T21:03:25.040Z,0.95
2022-12-03T21:06:01.534Z,0.88
2022-12-03T21:08:40.917Z,0.94
2022-12-03T21:11:11.993Z,0.97
2022-12-03T21:13:45.109Z,0.91
2022-12-03T21:16:18.907Z,0.88
2022-12-03T21:18:48.583Z,0.85
2022-12-03T21:21:18.784Z,0.72
2022-12-03T21:23:48.250Z,0.91
2022-12-03T21:26:20.333Z,0.64
2022-12-03T21:28:52.857Z,0.85
2022-12-03T21:31:25.204Z,0.89
2022-12-03T21:33:55.005Z,0.89
2022-12-03T21:36:25.060Z,0.90
2022-12-03T21:38:54.837Z,0.86
2022-12-03T21:41:23.420Z,0.86
2022-12-03T21:43:54.333Z,0.82
2022-12-03T21:47:09.561Z,0.83
2022-12-03T21:49:12.160Z,0.89
2022-12-03T21:51:41.158Z,0.91
2022-12-03T21:54:10.483Z,0.93
2022-12-03T21:56:39.240Z,0.97
2022-12-03T21:59:09.894Z,1.03
2022-12-03T22:01:41.698Z,0.80
2022-12-03T22:04:14.258Z,0.79
2022-12-03T22:06:44.267Z,0.85
2022-12-03T22:09:12.903Z,0.93
2022-12-03T22:11:41.877Z,1.02
2022-12-03T22:14:12.335Z,0.80
2022-12-03T22:16:41.005Z,0.79
2022-12-03T22:19:09.692Z,0.87
2022-12-03T22:21:38.594Z,0.92
2022-12-03T22:24:07.937Z,0.93
2022-12-03T22:26:36.588Z,1.00
2022-12-03T22:29:06.189Z,1.05
2022-12-03T22:31:36.276Z,0.92
2022-12-03T22:34:05.707Z,0.83
2022-12-03T22:36:34.390Z,0.90
2022-12-03T22:39:03.027Z,0.90
2022-12-03T22:41:31.891Z,0.97
2022-12-03T22:44:00.507Z,0.94
2022-12-03T22:46:29.141Z,1.01
2022-12-03T22:49:03.484Z,1.00
2022-12-03T22:51:35.964Z,0.93
2022-12-03T22:54:05.561Z,0.82
2022-12-03T22:56:34.690Z,0.80
2022-12-03T22:59:03.284Z,0.75
2022-12-03T23:01:34.092Z,0.88
2022-12-03T23:04:05.184Z,0.97
2022-12-03T23:06:35.355Z,0.86
2022-12-03T23:09:06.874Z,0.89
2022-12-03T23:11:35.805Z,0.97
2022-12-03T23:14:04.686Z,1.01
2022-12-03T23:16:34.606Z,0.98
2022-12-03T23:19:04.765Z,1.01
2022-12-03T23:21:35.432Z,0.97
2022-12-03T23:24:05.999Z,0.98
2022-12-03T23:26:36.990Z,1.03
2022-12-03T23:29:08.581Z,1.10
2022-12-03T23:31:37.553Z,1.12
2022-12-03T23:34:07.602Z,1.10
2022-12-03T23:36:36.350Z,1.16
2022-12-03T23:39:05.122Z,1.17
2022-12-03T23:41:33.744Z,1.13
2022-12-03T23:44:02.382Z,1.17
2022-12-03T23:46:31.096Z,1.12
2022-12-03T23:49:00.601Z,0.98
2022-12-03T23:51:30.656Z,1.00
2022-12-03T23:53:59.270Z,1.07
2022-12-03T23:56:30.234Z,1.09
2022-12-03T23:58:59.695Z,1.07
